Time;durP1;ratioP1;P1;durP2;ratioP2;P2;SDS_P1;SDS_P2;PMS_P1;PMS_P2;Temp;Humidity;BMP_temperature;BMP_pressure;BME280_temperature;BME280_humidity;BME280_pressure;Samples;Min_cycle;Max_cycle;Signal;HPM_P1;HPM_P2
2021/05/08 00:01:11;;;;;;;0.90;0.90;;;21.20;43.30;;;;;;4981216;28;21471;-69
2021/05/08 00:03:37;;;;;;;1.23;1.13;;;21.20;43.40;;;;;;4992593;28;20413;-71
2021/05/08 00:06:06;;;;;;;1.00;0.90;;;21.20;43.30;;;;;;4995708;28;20838;-69
2021/05/08 00:08:33;;;;;;;1.80;1.40;;;21.20;43.40;;;;;;5002343;28;20463;-71
2021/05/08 00:10:59;;;;;;;1.97;1.20;;;21.20;43.30;;;;;;4995341;28;20443;-69
2021/05/08 00:13:25;;;;;;;2.53;0.90;;;21.20;43.20;;;;;;4997669;28;20430;-69
2021/05/08 00:15:51;;;;;;;2.50;1.25;;;21.30;43.20;;;;;;4995502;28;20427;-68
2021/05/08 00:18:17;;;;;;;1.00;1.00;;;21.30;43.20;;;;;;4986395;28;21458;-69
2021/05/08 00:20:44;;;;;;;1.50;0.90;;;21.30;43.10;;;;;;4977640;28;20423;-70
2021/05/08 00:23:11;;;;;;;1.40;1.10;;;21.30;43.30;;;;;;4987738;28;20415;-69
2021/05/08 00:25:37;;;;;;;1.90;0.90;;;21.30;43.20;;;;;;4977831;28;20434;-69
2021/05/08 00:28:03;;;;;;;1.70;1.00;;;21.30;43.20;;;;;;4991356;28;20411;-69
2021/05/08 00:30:29;;;;;;;3.70;1.10;;;21.30;43.20;;;;;;4987480;28;20846;-70
2021/05/08 00:32:56;;;;;;;2.20;1.00;;;21.30;43.00;;;;;;5002242;28;20412;-69
2021/05/08 00:35:22;;;;;;;2.53;1.20;;;21.30;43.20;;;;;;4994446;28;20433;-69
2021/05/08 00:37:48;;;;;;;1.80;0.80;;;21.30;43.10;;;;;;4993761;28;20451;-72
2021/05/08 00:40:15;;;;;;;1.90;1.20;;;21.20;43.10;;;;;;4992288;28;20426;-72
2021/05/08 00:42:41;;;;;;;1.73;1.00;;;21.20;43.10;;;;;;4994405;28;20411;-70
2021/05/08 00:45:08;;;;;;;1.63;1.10;;;21.20;43.20;;;;;;5002671;28;20421;-69
2021/05/08 00:47:35;;;;;;;2.10;1.20;;;21.20;43.20;;;;;;4996757;28;20954;-68
2021/05/08 00:50:01;;;;;;;1.10;0.93;;;21.20;43.30;;;;;;4997361;28;20453;-70
2021/05/08 00:52:27;;;;;;;1.50;1.10;;;21.10;43.30;;;;;;4996120;28;21031;-70
2021/05/08 00:54:53;;;;;;;2.33;1.10;;;21.20;43.60;;;;;;4997663;28;20413;-71
2021/05/08 00:57:20;;;;;;;1.58;1.10;;;21.20;43.40;;;;;;4993720;28;20443;-72
2021/05/08 00:59:47;;;;;;;1.50;1.13;;;21.20;43.30;;;;;;4993929;28;20475;-70
2021/05/08 01:02:13;;;;;;;1.10;0.90;;;21.20;43.10;;;;;;4993554;28;20409;-69
2021/05/08 01:04:39;;;;;;;1.27;0.90;;;21.20;43.10;;;;;;4989713;28;21067;-70
2021/05/08 01:07:05;;;;;;;2.50;1.10;;;21.20;43.30;;;;;;4976385;28;20927;-69
2021/05/08 01:09:31;;;;;;;2.28;1.23;;;21.20;43.30;;;;;;5004138;28;20432;-69
2021/05/08 01:11:57;;;;;;;1.50;1.23;;;21.20;43.30;;;;;;4986647;28;20427;-68
2021/05/08 01:14:24;;;;;;;2.72;0.95;;;21.20;43.30;;;;;;4995101;28;20483;-70
2021/05/08 01:16:51;;;;;;;1.60;1.20;;;21.20;43.30;;;;;;4996465;28;20431;-68
2021/05/08 01:19:17;;;;;;;2.10;0.90;;;21.20;43.50;;;;;;4998103;28;20413;-71
2021/05/08 01:21:45;;;;;;;1.00;0.90;;;21.20;43.30;;;;;;4994841;28;20500;-70
2021/05/08 01:24:11;;;;;;;1.10;1.00;;;21.20;43.40;;;;;;4966333;28;20915;-68
2021/05/08 01:26:37;;;;;;;1.48;1.10;;;21.20;43.40;;;;;;4977579;28;20425;-72
2021/05/08 01:29:04;;;;;;;1.80;0.90;;;21.10;43.30;;;;;;4984569;28;20619;-69
2021/05/08 01:31:30;;;;;;;1.40;0.90;;;21.20;43.40;;;;;;4994911;28;20413;-70
2021/05/08 01:33:56;;;;;;;1.10;0.88;;;21.20;43.40;;;;;;4997034;28;20451;-72
2021/05/08 01:36:22;;;;;;;1.50;1.05;;;21.10;43.40;;;;;;4999987;28;20426;-70
2021/05/08 01:38:49;;;;;;;1.70;1.00;;;21.10;43.30;;;;;;4998403;28;20426;-71
2021/05/08 01:41:15;;;;;;;1.30;1.20;;;21.10;43.50;;;;;;4985414;28;20539;-68
2021/05/08 01:43:42;;;;;;;1.65;0.90;;;21.10;43.40;;;;;;5013566;28;20421;-68
2021/05/08 01:46:08;;;;;;;2.25;1.20;;;21.10;43.30;;;;;;4988499;28;20440;-70
2021/05/08 01:48:34;;;;;;;1.30;1.00;;;21.20;43.50;;;;;;5007342;28;20425;-70
2021/05/08 01:51:00;;;;;;;1.70;1.20;;;21.20;43.40;;;;;;4999242;28;20435;-68
2021/05/08 01:53:26;;;;;;;1.25;1.00;;;21.20;43.40;;;;;;4989027;28;21053;-71
2021/05/08 01:55:54;;;;;;;2.10;1.10;;;21.20;43.40;;;;;;4998461;28;20419;-68
2021/05/08 01:58:20;;;;;;;1.00;0.90;;;21.20;43.20;;;;;;4985374;28;20418;-71
2021/05/08 02:00:47;;;;;;;1.77;1.00;;;21.20;43.30;;;;;;4981162;28;20432;-70
2021/05/08 02:03:13;;;;;;;1.10;0.90;;;21.20;43.10;;;;;;4989532;28;20420;-67
2021/05/08 02:05:40;;;;;;;2.70;1.00;;;21.20;43.30;;;;;;4983667;28;20806;-70
2021/05/08 02:08:07;;;;;;;1.40;1.00;;;21.20;43.20;;;;;;4986226;28;20419;-70
2021/05/08 02:10:33;;;;;;;0.90;0.80;;;21.20;42.90;;;;;;4982767;28;20424;-69
2021/05/08 02:13:01;;;;;;;1.60;1.00;;;21.20;43.30;;;;;;4969452;28;20413;-68
2021/05/08 02:15:27;;;;;;;2.20;1.02;;;21.20;43.40;;;;;;4970330;28;20486;-69
2021/05/08 02:17:53;;;;;;;2.30;0.80;;;21.20;43.60;;;;;;4978094;28;20774;-71
2021/05/08 02:20:22;;;;;;;0.90;0.90;;;21.20;43.30;;;;;;4987320;28;20428;-72
2021/05/08 02:22:49;;;;;;;0.80;0.80;;;21.20;43.50;;;;;;4962613;28;20411;-73
2021/05/08 02:25:15;;;;;;;2.10;1.00;;;21.20;43.30;;;;;;5003833;28;20947;-70
2021/05/08 02:27:41;;;;;;;1.20;1.10;;;21.20;43.30;;;;;;4993985;28;20420;-69
2021/05/08 02:30:09;;;;;;;0.90;0.90;;;21.20;43.10;;;;;;5000537;28;21209;-69
2021/05/08 02:32:36;;;;;;;1.35;0.90;;;21.20;43.10;;;;;;4997902;28;20405;-68
2021/05/08 02:35:02;;;;;;;1.00;0.80;;;21.20;43.30;;;;;;4997713;28;20935;-67
2021/05/08 02:37:28;;;;;;;1.13;0.80;;;21.20;43.40;;;;;;4997937;28;20585;-70
2021/05/08 02:39:54;;;;;;;2.20;0.90;;;21.20;43.40;;;;;;4993734;28;20419;-70
2021/05/08 02:42:21;;;;;;;1.40;0.90;;;21.20;43.30;;;;;;5010009;28;20424;-70
2021/05/08 02:44:47;;;;;;;2.97;0.90;;;21.20;43.50;;;;;;4999730;28;20415;-70
2021/05/08 02:47:20;;;;;;;1.90;1.17;;;21.10;43.50;;;;;;4995341;28;20432;-72
2021/05/08 02:49:46;;;;;;;1.10;1.00;;;21.10;43.70;;;;;;4998124;28;20525;-69
2021/05/08 02:52:12;;;;;;;3.00;1.20;;;21.10;43.50;;;;;;4994218;28;20501;-70
2021/05/08 02:54:38;;;;;;;2.00;1.20;;;21.10;43.50;;;;;;4981327;28;20440;-69
2021/05/08 02:57:05;;;;;;;2.42;1.10;;;21.10;43.10;;;;;;4996502;28;20413;-69
2021/05/08 02:59:31;;;;;;;3.80;0.90;;;21.20;43.50;;;;;;4993228;28;20429;-70
2021/05/08 03:01:57;;;;;;;1.70;1.30;;;21.20;43.20;;;;;;4995301;28;21335;-68
2021/05/08 03:04:24;;;;;;;1.13;1.02;;;21.20;43.60;;;;;;4998826;28;20427;-69
2021/05/08 03:06:50;;;;;;;1.53;0.80;;;21.20;43.30;;;;;;4987646;28;20477;-69
2021/05/08 03:09:16;;;;;;;1.60;0.90;;;21.20;43.50;;;;;;5006393;28;20409;-68
2021/05/08 03:11:42;;;;;;;1.67;1.33;;;21.10;43.20;;;;;;4998214;28;20432;-69
2021/05/08 03:14:09;;;;;;;0.85;0.85;;;21.10;43.40;;;;;;4987971;28;20449;-71
2021/05/08 03:16:36;;;;;;;1.67;1.20;;;21.10;43.50;;;;;;4987533;28;20408;-71
2021/05/08 03:19:03;;;;;;;1.38;0.80;;;21.10;43.60;;;;;;4975151;28;21154;-69
2021/05/08 03:21:32;;;;;;;1.70;1.10;;;21.10;43.60;;;;;;4996738;28;20425;-70
2021/05/08 03:23:58;;;;;;;1.00;1.00;;;21.00;43.40;;;;;;4998381;28;20425;-71
2021/05/08 03:26:24;;;;;;;1.50;1.10;;;21.00;43.50;;;;;;4986899;28;20434;-70
2021/05/08 03:28:50;;;;;;;2.03;1.10;;;21.00;43.50;;;;;;5010618;28;20437;-69
2021/05/08 03:31:16;;;;;;;1.83;1.00;;;21.00;43.60;;;;;;4996921;28;20416;-71
2021/05/08 03:33:42;;;;;;;1.40;0.90;;;21.00;43.50;;;;;;4988743;28;20409;-70
2021/05/08 03:36:09;;;;;;;2.90;1.00;;;21.00;43.50;;;;;;4990653;28;20484;-70
2021/05/08 03:38:36;;;;;;;1.67;1.00;;;21.00;43.60;;;;;;4981680;28;21016;-70
2021/05/08 03:41:02;;;;;;;0.70;0.70;;;21.00;43.70;;;;;;5002145;28;20459;-69
2021/05/08 03:43:28;;;;;;;1.30;1.20;;;21.00;43.40;;;;;;4995025;28;20417;-71
2021/05/08 03:45:54;;;;;;;1.63;1.10;;;21.00;43.40;;;;;;4995523;28;20498;-68
2021/05/08 03:48:20;;;;;;;2.03;0.90;;;21.10;43.40;;;;;;4997927;28;20416;-68
2021/05/08 03:50:46;;;;;;;1.43;0.83;;;21.10;43.30;;;;;;4994765;28;20464;-68
2021/05/08 03:53:13;;;;;;;2.50;1.00;;;21.10;43.50;;;;;;4997946;28;20888;-68
2021/05/08 03:55:40;;;;;;;1.30;1.00;;;21.10;43.40;;;;;;4997197;28;20419;-70
2021/05/08 03:58:06;;;;;;;2.30;1.10;;;21.10;43.90;;;;;;4997095;28;20548;-69
2021/05/08 04:00:32;;;;;;;0.93;0.90;;;21.10;43.30;;;;;;4994301;28;20459;-70
2021/05/08 04:02:59;;;;;;;2.10;1.00;;;21.10;43.30;;;;;;4996155;28;20421;-70
2021/05/08 04:05:25;;;;;;;1.65;0.98;;;21.10;43.40;;;;;;4997135;28;20431;-68
2021/05/08 04:07:51;;;;;;;2.67;1.10;;;21.00;43.50;;;;;;4996319;28;20496;-69
2021/05/08 04:10:18;;;;;;;1.30;0.70;;;21.00;43.40;;;;;;4996750;28;20412;-70
2021/05/08 04:12:45;;;;;;;1.98;1.00;;;21.00;43.50;;;;;;4996922;28;20404;-70
2021/05/08 04:15:11;;;;;;;1.00;0.90;;;21.00;43.50;;;;;;4995541;28;21035;-69
2021/05/08 04:17:37;;;;;;;0.90;0.90;;;21.00;43.40;;;;;;4996435;28;20425;-71
2021/05/08 04:20:04;;;;;;;1.30;1.03;;;21.00;43.60;;;;;;4996420;28;20428;-74
2021/05/08 04:22:30;;;;;;;2.95;0.85;;;21.00;43.40;;;;;;4991616;28;20409;-69
2021/05/08 04:24:56;;;;;;;1.50;1.00;;;21.00;43.50;;;;;;4997710;28;20479;-70
2021/05/08 04:27:22;;;;;;;1.30;1.00;;;21.00;43.50;;;;;;4993294;28;20599;-69
2021/05/08 04:29:49;;;;;;;1.77;1.10;;;21.00;43.60;;;;;;4997416;28;20579;-71
2021/05/08 04:32:16;;;;;;;1.52;1.10;;;21.00;43.40;;;;;;4995973;28;20415;-71
2021/05/08 04:34:42;;;;;;;2.53;0.90;;;21.00;43.70;;;;;;4992180;28;20416;-68
2021/05/08 04:37:08;;;;;;;1.00;0.90;;;21.00;43.40;;;;;;4991602;28;20416;-71
2021/05/08 04:39:34;;;;;;;1.50;1.10;;;21.00;43.50;;;;;;4987631;28;20402;-70
2021/05/08 04:42:00;;;;;;;3.20;1.10;;;21.00;43.50;;;;;;4994421;28;20475;-69
2021/05/08 04:44:26;;;;;;;1.77;1.50;;;21.10;43.50;;;;;;4994955;28;20432;-68
2021/05/08 04:46:53;;;;;;;1.05;0.95;;;21.10;43.50;;;;;;5000262;28;20419;-69
2021/05/08 04:49:19;;;;;;;1.20;0.88;;;21.10;43.40;;;;;;4984351;28;20412;-69
2021/05/08 04:51:45;;;;;;;1.17;0.90;;;21.10;43.40;;;;;;4990101;28;20416;-69
2021/05/08 04:54:11;;;;;;;1.10;1.00;;;21.10;43.30;;;;;;5002544;28;20423;-67
2021/05/08 04:56:38;;;;;;;2.03;1.20;;;21.10;43.50;;;;;;4983722;28;20417;-71
2021/05/08 04:59:04;;;;;;;1.20;1.00;;;21.10;43.40;;;;;;4996804;28;20436;-68
2021/05/08 05:01:31;;;;;;;1.30;0.98;;;21.10;43.50;;;;;;4997131;28;20419;-67
2021/05/08 05:03:58;;;;;;;1.00;0.90;;;21.10;43.60;;;;;;4998161;28;20416;-70
2021/05/08 05:06:24;;;;;;;1.50;0.80;;;21.10;43.40;;;;;;4994633;28;20421;-68
2021/05/08 05:08:50;;;;;;;2.10;1.00;;;21.00;43.40;;;;;;4986508;28;20414;-67
2021/05/08 05:11:17;;;;;;;1.67;1.00;;;21.00;43.30;;;;;;4997645;28;20423;-66
2021/05/08 05:13:44;;;;;;;2.13;1.20;;;21.00;43.40;;;;;;5003626;28;20836;-69
2021/05/08 05:16:10;;;;;;;1.70;0.90;;;21.00;43.40;;;;;;4998071;28;20954;-68
2021/05/08 05:18:37;;;;;;;1.63;0.80;;;21.00;43.50;;;;;;4994065;28;20486;-68
2021/05/08 05:21:04;;;;;;;1.38;1.27;;;21.00;43.40;;;;;;4975643;28;20557;-67
2021/05/08 05:23:30;;;;;;;3.60;1.10;;;21.10;43.30;;;;;;4984493;28;20838;-69
2021/05/08 05:25:56;;;;;;;2.33;1.00;;;21.10;43.20;;;;;;4985257;28;20548;-68
2021/05/08 05:28:23;;;;;;;1.10;1.00;;;21.20;43.10;;;;;;5006681;28;20416;-68
2021/05/08 05:30:49;;;;;;;1.40;1.30;;;21.30;43.00;;;;;;4989065;28;20437;-67
2021/05/08 05:33:16;;;;;;;1.33;1.00;;;21.30;42.90;;;;;;5008902;28;20782;-67
2021/05/08 05:35:42;;;;;;;2.20;1.23;;;21.30;42.80;;;;;;5000061;28;20924;-67
2021/05/08 05:38:09;;;;;;;2.20;1.00;;;21.30;42.80;;;;;;5001123;28;20420;-69
2021/05/08 05:40:35;;;;;;;1.20;0.95;;;21.30;42.80;;;;;;4999382;28;20413;-69
2021/05/08 05:43:01;;;;;;;1.40;1.10;;;21.30;42.80;;;;;;4998689;28;20478;-69
2021/05/08 05:45:27;;;;;;;1.13;1.03;;;21.30;42.90;;;;;;4998157;28;20420;-70
2021/05/08 05:47:57;;;;;;;1.60;1.00;;;21.30;43.00;;;;;;4999547;28;20778;-69
2021/05/08 05:50:24;;;;;;;3.90;1.70;;;21.20;43.00;;;;;;4999376;28;20533;-68
2021/05/08 05:52:50;;;;;;;1.20;1.10;;;21.20;43.10;;;;;;4998288;28;20421;-68
2021/05/08 05:55:17;;;;;;;1.45;0.90;;;21.20;43.20;;;;;;4994522;28;20424;-70
2021/05/08 05:57:44;;;;;;;1.40;1.10;;;21.20;43.20;;;;;;4996592;28;20435;-69
2021/05/08 06:00:11;;;;;;;2.10;1.20;;;21.20;43.10;;;;;;4998879;28;20424;-69
2021/05/08 06:02:37;;;;;;;2.08;1.10;;;21.20;43.10;;;;;;4990872;28;20514;-70
2021/05/08 06:05:04;;;;;;;2.40;1.20;;;21.20;43.20;;;;;;5007978;28;20416;-69
2021/05/08 06:07:30;;;;;;;1.20;0.75;;;21.20;43.20;;;;;;4965151;28;20841;-69
2021/05/08 06:09:56;;;;;;;3.70;1.20;;;21.20;43.20;;;;;;4985239;28;20793;-68
2021/05/08 06:12:23;;;;;;;2.70;1.02;;;21.20;43.20;;;;;;4995943;28;20754;-69
2021/05/08 06:14:49;;;;;;;2.13;1.20;;;21.20;43.30;;;;;;4985750;28;20417;-69
2021/05/08 06:17:15;;;;;;;2.10;0.90;;;21.20;43.20;;;;;;5009148;28;21526;-69
2021/05/08 06:19:41;;;;;;;1.90;1.05;;;21.30;43.20;;;;;;4991711;28;20821;-70
2021/05/08 06:22:07;;;;;;;1.17;1.02;;;21.30;43.10;;;;;;4995859;28;20784;-70
2021/05/08 06:24:34;;;;;;;1.23;1.13;;;21.30;42.90;;;;;;5009539;28;20774;-70
2021/05/08 06:27:00;;;;;;;1.00;0.80;;;21.40;43.70;;;;;;4992948;28;20797;-70
2021/05/08 06:29:27;;;;;;;1.50;0.90;;;21.40;43.00;;;;;;4988137;28;20419;-68
2021/05/08 06:31:53;;;;;;;0.90;0.90;;;21.40;42.90;;;;;;4987519;28;20395;-67
2021/05/08 06:34:19;;;;;;;1.60;1.10;;;21.40;42.90;;;;;;4985025;28;20403;-67
2021/05/08 06:36:45;;;;;;;1.42;1.13;;;21.40;42.90;;;;;;4992295;28;20447;-66
2021/05/08 06:39:11;;;;;;;3.00;1.02;;;21.30;42.80;;;;;;4990334;28;20415;-68
2021/05/08 06:41:37;;;;;;;1.90;0.90;;;21.40;42.90;;;;;;4997016;28;20420;-70
2021/05/08 06:44:04;;;;;;;1.48;1.20;;;21.40;42.90;;;;;;4996510;28;20422;-69
2021/05/08 06:46:31;;;;;;;1.20;1.10;;;21.40;43.00;;;;;;4998427;28;20467;-68
2021/05/08 06:48:57;;;;;;;2.37;1.20;;;21.40;42.90;;;;;;4987852;28;20473;-68
2021/05/08 06:51:23;;;;;;;1.20;1.10;;;21.40;42.90;;;;;;4996086;28;20409;-69
2021/05/08 06:53:49;;;;;;;1.75;1.00;;;21.50;42.80;;;;;;4996673;28;20432;-68
2021/05/08 06:56:16;;;;;;;1.50;0.88;;;21.50;42.60;;;;;;4993932;28;20458;-67
2021/05/08 06:58:42;;;;;;;2.72;1.40;;;21.50;42.80;;;;;;4986357;28;20476;-68
2021/05/08 07:01:08;;;;;;;1.38;1.00;;;21.50;42.70;;;;;;4989587;28;20425;-69
2021/05/08 07:03:35;;;;;;;1.10;1.00;;;21.40;42.60;;;;;;4990762;28;20426;-68
2021/05/08 07:06:01;;;;;;;1.60;1.30;;;21.50;42.80;;;;;;5001101;28;20420;-68
2021/05/08 07:08:27;;;;;;;3.90;1.10;;;21.40;42.80;;;;;;4997958;28;20802;-68
2021/05/08 07:10:54;;;;;;;1.40;0.93;;;21.40;42.90;;;;;;4993447;28;20448;-69
2021/05/08 07:13:20;;;;;;;2.38;1.15;;;21.40;42.80;;;;;;5005215;28;20420;-67
2021/05/08 07:15:47;;;;;;;1.35;0.90;;;21.40;42.90;;;;;;4988045;28;20418;-67
2021/05/08 07:18:13;;;;;;;0.93;0.90;;;21.40;42.90;;;;;;5000323;28;20526;-67
2021/05/08 07:20:40;;;;;;;1.23;1.00;;;21.40;42.90;;;;;;4988894;28;20434;-69
2021/05/08 07:23:06;;;;;;;2.33;1.20;;;21.40;42.80;;;;;;4999228;28;20420;-71
2021/05/08 07:25:33;;;;;;;0.98;0.90;;;21.40;42.90;;;;;;4988918;28;20498;-70
2021/05/08 07:28:09;;;;;;;1.95;1.10;;;21.40;42.80;;;;;;4993453;28;20418;-69
2021/05/08 07:30:35;;;;;;;2.50;1.13;;;21.40;42.90;;;;;;4997396;28;20442;-71
2021/05/08 07:33:02;;;;;;;1.42;1.00;;;21.40;42.90;;;;;;4992119;28;20452;-68
2021/05/08 07:35:28;;;;;;;1.38;1.10;;;21.50;42.90;;;;;;4997632;28;20425;-69
2021/05/08 07:37:55;;;;;;;1.40;1.00;;;21.40;43.00;;;;;;4997043;28;20434;-69
2021/05/08 07:40:21;;;;;;;2.30;1.00;;;21.40;43.00;;;;;;4987473;28;20413;-69
2021/05/08 07:42:47;;;;;;;1.55;1.00;;;21.40;42.90;;;;;;4992410;28;20401;-70
2021/05/08 07:45:14;;;;;;;1.40;1.00;;;21.40;42.90;;;;;;4996939;28;20444;-71
2021/05/08 07:47:40;;;;;;;1.60;1.10;;;21.40;42.90;;;;;;5001187;28;20482;-68
2021/05/08 07:50:07;;;;;;;1.00;1.00;;;21.40;42.90;;;;;;4991788;28;20415;-69
2021/05/08 07:52:33;;;;;;;1.00;0.90;;;21.40;43.00;;;;;;4996777;28;20479;-67
2021/05/08 07:55:00;;;;;;;3.20;0.93;;;21.40;42.90;;;;;;4998872;28;21122;-67
2021/05/08 07:57:27;;;;;;;4.30;1.30;;;21.40;42.90;;;;;;4989832;28;21060;-68
2021/05/08 07:59:53;;;;;;;1.70;1.00;;;21.40;42.90;;;;;;5002226;28;20419;-68
2021/05/08 08:02:19;;;;;;;2.00;1.10;;;21.40;42.80;;;;;;4999039;28;20419;-70
2021/05/08 08:04:45;;;;;;;0.93;0.90;;;21.50;42.90;;;;;;5000929;28;20424;-69
2021/05/08 08:07:11;;;;;;;1.50;1.20;;;21.50;42.80;;;;;;4966875;28;20422;-68
2021/05/08 08:09:37;;;;;;;1.10;1.00;;;21.50;42.90;;;;;;4993398;28;20425;-71
2021/05/08 08:12:05;;;;;;;1.40;1.00;;;21.40;42.70;;;;;;4984447;28;20466;-69
2021/05/08 08:14:31;;;;;;;1.80;0.90;;;21.40;42.80;;;;;;4992993;28;20438;-69
2021/05/08 08:16:58;;;;;;;2.00;1.20;;;21.40;42.80;;;;;;4995297;28;20434;-71
2021/05/08 08:19:24;;;;;;;1.02;0.90;;;21.30;42.70;;;;;;4985714;28;20440;-71
2021/05/08 08:21:50;;;;;;;1.40;1.10;;;21.30;42.90;;;;;;4990905;28;20483;-70
2021/05/08 08:24:16;;;;;;;3.00;1.40;;;21.30;42.90;;;;;;4993334;28;20420;-70
2021/05/08 08:26:42;;;;;;;1.17;0.90;;;21.30;43.00;;;;;;4997550;28;20420;-70
2021/05/08 08:29:09;;;;;;;2.10;1.15;;;21.30;42.90;;;;;;4993197;28;20435;-69
2021/05/08 08:31:35;;;;;;;1.20;0.80;;;21.30;43.00;;;;;;4995732;28;20425;-68
2021/05/08 08:34:01;;;;;;;2.13;0.90;;;21.20;42.90;;;;;;4973123;28;20420;-71
2021/05/08 08:36:27;;;;;;;2.38;1.02;;;21.30;43.00;;;;;;4995286;28;20518;-68
2021/05/08 08:38:54;;;;;;;1.30;1.00;;;21.20;42.90;;;;;;4996081;28;20423;-69
2021/05/08 08:41:20;;;;;;;3.00;1.00;;;21.30;42.90;;;;;;5001061;28;20407;-69
2021/05/08 08:43:46;;;;;;;1.88;1.20;;;21.30;42.90;;;;;;4999784;28;20419;-70
2021/05/08 08:46:13;;;;;;;1.13;0.90;;;21.40;42.80;;;;;;4997739;28;20416;-68
2021/05/08 08:48:40;;;;;;;1.75;0.90;;;21.40;42.90;;;;;;4998311;28;20525;-69
2021/05/08 08:51:06;;;;;;;2.08;1.13;;;21.40;42.90;;;;;;4988257;28;20511;-70
2021/05/08 08:53:32;;;;;;;1.98;0.90;;;21.40;42.80;;;;;;5003503;28;20518;-69
2021/05/08 08:55:59;;;;;;;2.00;0.98;;;21.40;42.80;;;;;;4996969;28;21404;-67
2021/05/08 08:58:28;;;;;;;2.00;1.05;;;21.40;42.80;;;;;;4998842;28;20951;-69
2021/05/08 09:00:56;;;;;;;2.80;0.90;;;21.40;42.80;;;;;;5000779;28;20443;-69
2021/05/08 09:03:23;;;;;;;1.88;0.90;;;21.40;42.90;;;;;;4995194;28;20408;-67
2021/05/08 09:05:49;;;;;;;1.20;0.88;;;21.40;42.80;;;;;;5000083;28;20412;-69
2021/05/08 09:08:15;;;;;;;1.20;1.00;;;21.40;42.80;;;;;;4999834;28;20426;-71
2021/05/08 09:10:41;;;;;;;1.60;1.00;;;21.40;42.90;;;;;;4998390;28;20432;-70
2021/05/08 09:13:13;;;;;;;1.08;1.08;;;21.30;42.80;;;;;;4995008;28;20416;-70
2021/05/08 09:15:40;;;;;;;1.40;0.90;;;21.30;42.90;;;;;;5001437;28;20429;-68
2021/05/08 09:18:07;;;;;;;1.90;0.82;;;21.30;42.90;;;;;;5000771;28;20428;-67
2021/05/08 09:20:45;;;;;;;1.10;0.70;;;21.30;43.00;;;;;;4994719;28;21088;-71
2021/05/08 09:23:18;;;;;;;1.15;0.93;;;21.30;43.00;;;;;;4991658;28;20490;-67
2021/05/08 09:26:01;;;;;;;1.40;0.80;;;21.30;43.00;;;;;;4979322;28;20877;-70
2021/05/08 09:28:28;;;;;;;1.50;0.90;;;21.30;43.00;;;;;;4991580;28;20435;-68
2021/05/08 09:30:55;;;;;;;1.90;0.80;;;21.30;42.90;;;;;;4990677;28;20456;-71
2021/05/08 09:33:21;;;;;;;0.90;0.80;;;21.40;43.00;;;;;;4997517;28;20416;-70
2021/05/08 09:35:58;;;;;;;2.63;0.90;;;21.40;43.00;;;;;;4989121;28;21685;-69
2021/05/08 09:38:29;;;;;;;2.20;0.90;;;21.40;42.90;;;;;;5005094;28;20420;-70
2021/05/08 09:40:55;;;;;;;1.70;1.30;;;21.40;42.90;;;;;;4982279;28;20424;-71
2021/05/08 09:43:21;;;;;;;1.80;0.80;;;21.40;43.50;;;;;;5007555;28;20413;-69
2021/05/08 09:45:51;;;;;;;4.40;1.00;;;21.40;42.80;;;;;;4994052;28;20415;-71
2021/05/08 09:48:18;;;;;;;1.00;0.80;;;21.40;42.80;;;;;;4999646;28;20415;-70
2021/05/08 09:50:45;;;;;;;1.48;1.00;;;21.30;42.80;;;;;;4998146;28;20431;-68
2021/05/08 09:53:12;;;;;;;1.57;0.80;;;21.30;42.90;;;;;;4989876;28;20459;-68
2021/05/08 09:55:38;;;;;;;1.52;0.90;;;21.30;42.90;;;;;;5005381;28;20448;-70
2021/05/08 09:58:05;;;;;;;3.00;1.10;;;21.30;43.00;;;;;;4998084;28;21222;-68
2021/05/08 10:00:35;;;;;;;0.70;0.70;;;21.30;42.90;;;;;;4996423;28;21794;-71
2021/05/08 10:03:09;;;;;;;2.00;1.20;;;21.30;42.90;;;;;;4993846;28;20416;-68
2021/05/08 10:05:35;;;;;;;0.88;0.80;;;21.30;42.90;;;;;;4992043;28;20435;-69
2021/05/08 10:08:01;;;;;;;2.00;0.90;;;21.20;42.80;;;;;;4988646;28;20419;-70
2021/05/08 10:10:29;;;;;;;1.20;0.90;;;21.30;43.40;;;;;;5000061;28;20421;-68
2021/05/08 10:12:55;;;;;;;0.88;0.88;;;21.30;42.80;;;;;;4994764;28;20479;-69
2021/05/08 10:15:22;;;;;;;1.40;0.70;;;21.30;42.90;;;;;;4987225;28;21613;-71
2021/05/08 10:17:49;;;;;;;0.80;0.80;;;21.30;42.90;;;;;;4991270;28;20490;-71
2021/05/08 10:20:16;;;;;;;0.80;0.80;;;21.30;43.00;;;;;;4984049;28;20417;-68
2021/05/08 10:22:46;;;;;;;4.00;0.97;;;21.30;42.90;;;;;;4993611;28;20414;-71
2021/05/08 10:25:12;;;;;;;1.60;0.70;;;21.30;42.90;;;;;;4996366;28;20419;-68
2021/05/08 10:27:39;;;;;;;0.70;0.70;;;21.30;42.90;;;;;;4998109;28;20413;-69
2021/05/08 10:30:07;;;;;;;0.90;0.80;;;21.40;42.90;;;;;;4997317;28;20408;-68
2021/05/08 10:32:33;;;;;;;1.13;0.90;;;21.40;42.90;;;;;;4998274;28;20440;-69
2021/05/08 10:35:02;;;;;;;2.33;0.90;;;21.30;42.70;;;;;;4998559;28;20420;-70
2021/05/08 10:37:28;;;;;;;0.95;0.80;;;21.30;42.70;;;;;;4991118;28;21923;-69
2021/05/08 10:39:55;;;;;;;3.03;0.90;;;21.30;42.80;;;;;;5007620;28;21067;-73
2021/05/08 10:42:46;;;;;;;1.95;0.90;;;21.30;42.80;;;;;;4997962;28;20480;-70
2021/05/08 10:45:32;;;;;;;1.00;0.90;;;21.30;42.80;;;;;;4988652;28;20415;-69
2021/05/08 10:48:11;;;;;;;1.10;0.90;;;21.30;42.80;;;;;;5002337;28;20489;-69
2021/05/08 10:50:47;;;;;;;1.40;0.80;;;21.30;42.80;;;;;;4994952;28;20416;-73
2021/05/08 10:53:14;;;;;;;0.60;0.57;;;21.30;43.00;;;;;;5001849;28;20414;-68
2021/05/08 10:55:48;;;;;;;2.10;0.90;;;21.30;42.90;;;;;;4989301;28;21955;-70
2021/05/08 10:58:33;;;;;;;1.00;0.80;;;21.30;42.90;;;;;;4978165;28;20452;-69
2021/05/08 11:01:00;;;;;;;1.20;0.90;;;21.40;42.90;;;;;;4993305;28;20413;-68
2021/05/08 11:03:27;;;;;;;0.70;0.70;;;21.40;42.90;;;;;;4975785;28;20475;-70
2021/05/08 11:05:54;;;;;;;2.00;0.70;;;21.40;42.90;;;;;;4984904;28;20501;-70
2021/05/08 11:08:42;;;;;;;1.00;0.73;;;21.40;42.80;;;;;;4975658;28;20415;-68
2021/05/08 11:11:09;;;;;;;1.20;0.77;;;21.40;42.80;;;;;;4974867;28;20461;-68
2021/05/08 11:13:59;;;;;;;1.50;0.88;;;21.40;42.90;;;;;;5001202;28;20511;-70
2021/05/08 11:16:26;;;;;;;1.10;0.90;;;21.40;42.80;;;;;;4975176;28;20502;-69
2021/05/08 11:18:52;;;;;;;1.70;0.60;;;21.30;42.80;;;;;;4985002;28;22847;-69
2021/05/08 11:21:38;;;;;;;1.08;0.65;;;21.40;42.70;;;;;;4982734;28;20813;-69
2021/05/08 11:24:05;;;;;;;0.88;0.80;;;21.30;42.80;;;;;;4996065;28;20432;-69
2021/05/08 11:26:33;;;;;;;0.80;0.80;;;21.30;42.80;;;;;;4988992;28;20423;-69
2021/05/08 11:29:01;;;;;;;0.70;0.70;;;21.30;42.90;;;;;;4965600;28;20440;-69
2021/05/08 11:31:27;;;;;;;0.93;0.60;;;21.30;42.60;;;;;;4960814;28;20435;-70
2021/05/08 11:34:03;;;;;;;0.80;0.80;;;21.30;43.80;;;;;;4975224;28;20934;-68
2021/05/08 11:36:29;;;;;;;1.00;0.70;;;21.30;43.20;;;;;;4987222;28;21039;-70
2021/05/08 11:39:08;;;;;;;1.50;0.80;;;21.30;43.00;;;;;;4993692;28;20974;-70
2021/05/08 11:41:34;;;;;;;1.10;1.00;;;21.30;42.90;;;;;;5000746;28;20413;-69
2021/05/08 11:44:01;;;;;;;1.20;0.90;;;21.40;43.10;;;;;;4984936;28;20442;-69
2021/05/08 11:46:28;;;;;;;1.60;0.60;;;21.40;43.00;;;;;;4998155;28;21265;-69
2021/05/08 11:48:54;;;;;;;1.70;0.70;;;21.40;43.80;;;;;;4986423;28;20514;-69
2021/05/08 11:51:21;;;;;;;0.70;0.70;;;21.40;43.00;;;;;;4991645;28;20815;-69
2021/05/08 11:54:05;;;;;;;1.30;1.20;;;21.40;43.00;;;;;;4991451;28;20420;-68
2021/05/08 11:56:31;;;;;;;2.00;0.80;;;21.40;42.90;;;;;;4991503;28;20427;-70
2021/05/08 11:58:59;;;;;;;2.20;0.80;;;21.30;42.80;;;;;;5001603;28;20810;-68
2021/05/08 12:01:26;;;;;;;1.00;0.70;;;21.30;42.80;;;;;;4991428;28;20427;-69
2021/05/08 12:03:55;;;;;;;0.80;0.80;;;21.30;42.80;;;;;;5006205;28;20417;-68
2021/05/08 12:06:21;;;;;;;1.20;0.80;;;21.30;42.80;;;;;;4998253;28;20428;-68
2021/05/08 12:08:48;;;;;;;0.93;0.80;;;21.30;42.50;;;;;;4992173;28;20409;-69
2021/05/08 12:11:15;;;;;;;0.70;0.70;;;21.20;42.50;;;;;;4997146;28;21199;-68
2021/05/08 12:13:41;;;;;;;0.70;0.70;;;21.20;42.60;;;;;;4967243;28;20504;-67
2021/05/08 12:16:07;;;;;;;0.65;0.60;;;21.20;42.80;;;;;;4994659;28;20411;-69
2021/05/08 12:18:34;;;;;;;0.70;0.70;;;21.20;43.00;;;;;;4995655;28;20504;-68
2021/05/08 12:21:01;;;;;;;0.63;0.63;;;21.20;43.00;;;;;;4978569;28;20463;-68
2021/05/08 12:23:27;;;;;;;1.00;0.70;;;21.20;42.70;;;;;;4990413;28;20820;-70
2021/05/08 12:26:10;;;;;;;0.90;0.73;;;21.20;42.50;;;;;;5010135;28;20508;-72
2021/05/08 12:28:37;;;;;;;0.93;0.90;;;21.20;43.10;;;;;;4998452;28;20423;-72
2021/05/08 12:31:19;;;;;;;0.80;0.70;;;21.30;42.90;;;;;;4981290;28;20430;-69
2021/05/08 12:33:46;;;;;;;0.60;0.60;;;21.30;43.80;;;;;;4985839;28;20421;-68
2021/05/08 12:36:15;;;;;;;1.10;0.80;;;21.30;42.70;;;;;;4983931;28;20483;-68
2021/05/08 12:38:42;;;;;;;1.00;0.90;;;21.30;42.70;;;;;;5004430;28;20423;-67
2021/05/08 12:41:31;;;;;;;1.27;0.70;;;21.40;42.80;;;;;;4986198;28;20498;-70
2021/05/08 12:44:08;;;;;;;1.90;0.70;;;21.40;42.70;;;;;;4982393;28;20458;-70
2021/05/08 12:46:52;;;;;;;1.50;0.93;;;21.40;42.70;;;;;;4978198;28;20430;-68
2021/05/08 12:49:20;;;;;;;0.60;0.60;;;21.30;42.80;;;;;;4992953;28;20937;-69